Terminal Aerodrome Forecast
Issued by NWS Jacksonville, FL

Home | Current Version | Previous Version | Text Only | Print | Product List | Glossary On
Versions: 1 2 3 4 5 6 7 8 9 10 11 12 13 14 15 16 17 18 19 20 21 22
764
FTUS42 KJAX 221144
TAFGNV
TAF
KGNV 221144Z 2212/2312 00000KT P6SM SCT250
     FM221300 23006KT P6SM SCT025
     FM221600 22006KT P6SM VCTS BKN040CB BKN250
      TEMPO 2216/2220 VRB10G20KT 3SM +TSRA BR SCT020 BKN035CB OVC120
     FM230100 21003KT P6SM SCT070 BKN120 BKN250=

USA.gov is the U.S. government's official web portal to all federal, state and local government web resources and services.